Time;durP1;ratioP1;P1;durP2;ratioP2;P2;SDS_P1;SDS_P2;PMS_P1;PMS_P2;Temp;Humidity;BMP_temperature;BMP_pressure;BME280_temperature;BME280_humidity;BME280_pressure;Samples;Min_cycle;Max_cycle;Signal;HPM_P1;HPM_P2
2020/12/14 00:00:09;;;;;;;4.47;2.70;;;7.20;99.90;;;;;;5041994;28;20456;-80
2020/12/14 00:02:36;;;;;;;3.67;3.00;;;7.20;99.90;;;;;;5015085;28;20209;-81
2020/12/14 00:05:02;;;;;;;4.70;3.50;;;7.20;99.90;;;;;;5049754;28;20485;-78
2020/12/14 00:07:59;;;;;;;4.73;3.30;;;7.30;99.90;;;;;;5035586;28;20417;-81
2020/12/14 00:10:53;;;;;;;4.73;3.10;;;7.30;99.90;;;;;;4985094;28;20479;-81
2020/12/14 00:13:18;;;;;;;6.27;3.47;;;7.40;99.90;;;;;;4944792;28;20443;-81
2020/12/14 00:15:45;;;;;;;8.93;3.47;;;7.40;99.90;;;;;;4953400;28;20966;-79
2020/12/14 00:18:12;;;;;;;4.47;3.10;;;7.50;99.90;;;;;;4949814;28;20217;-79
2020/12/14 00:20:37;;;;;;;4.10;2.80;;;7.50;99.90;;;;;;4918735;28;20975;-80
2020/12/14 00:23:04;;;;;;;2.70;2.37;;;7.60;99.90;;;;;;4934107;28;20435;-81
2020/12/14 00:25:30;;;;;;;3.93;2.50;;;7.60;99.90;;;;;;4946121;28;20291;-80
2020/12/14 00:27:56;;;;;;;4.80;2.50;;;7.60;99.90;;;;;;4951818;28;20424;-80
2020/12/14 00:30:22;;;;;;;4.27;3.20;;;7.60;99.90;;;;;;4925388;28;20818;-78
2020/12/14 00:32:48;;;;;;;4.40;2.80;;;7.70;99.90;;;;;;4929414;28;20430;-81
2020/12/14 00:35:13;;;;;;;2.30;2.10;;;7.50;99.90;;;;;;4932251;28;21009;-80
2020/12/14 00:37:39;;;;;;;4.03;3.23;;;7.60;99.90;;;;;;4915295;28;20217;-80
2020/12/14 00:40:05;;;;;;;3.70;2.80;;;7.70;99.90;;;;;;4909886;29;20752;-81
2020/12/14 00:42:30;;;;;;;3.50;2.60;;;7.70;99.90;;;;;;4895077;28;20216;-81
2020/12/14 00:44:56;;;;;;;4.07;2.30;;;7.60;99.90;;;;;;4907992;28;20734;-80
2020/12/14 00:47:22;;;;;;;3.23;2.70;;;7.60;99.90;;;;;;4978624;28;20792;-79
2020/12/14 00:49:47;;;;;;;5.67;2.30;;;7.60;99.90;;;;;;5004417;28;20238;-79
2020/12/14 00:52:13;;;;;;;2.53;2.33;;;7.60;99.90;;;;;;5059431;28;20201;-79
2020/12/14 00:54:38;;;;;;;6.67;2.70;;;7.70;99.90;;;;;;5035266;28;20239;-79
2020/12/14 00:57:04;;;;;;;4.00;2.57;;;7.70;99.90;;;;;;5048067;28;20204;-79
2020/12/14 00:59:31;;;;;;;4.77;2.90;;;7.60;99.90;;;;;;5046581;28;20675;-80
2020/12/14 01:02:00;;;;;;;4.07;3.03;;;7.60;99.90;;;;;;5043674;28;20213;-79
2020/12/14 01:04:26;;;;;;;3.23;2.00;;;7.70;99.90;;;;;;5060537;28;20393;-83
2020/12/14 01:07:15;;;;;;;6.13;3.03;;;7.70;99.90;;;;;;5065778;28;20457;-79
2020/12/14 01:09:41;;;;;;;5.33;2.43;;;7.60;99.90;;;;;;5028305;28;20415;-78
2020/12/14 01:12:08;;;;;;;7.97;3.30;;;7.60;99.90;;;;;;5040441;28;20880;-79
2020/12/14 01:14:33;;;;;;;4.60;3.10;;;7.60;99.90;;;;;;5041693;28;20272;-78
2020/12/14 01:16:59;;;;;;;4.57;2.40;;;7.60;99.90;;;;;;5011121;28;20610;-79
2020/12/14 01:19:25;;;;;;;4.77;2.37;;;7.60;99.90;;;;;;5059504;28;20213;-80
2020/12/14 01:21:50;;;;;;;2.30;2.10;;;7.60;99.90;;;;;;5017232;28;20256;-79
2020/12/14 01:24:19;;;;;;;5.80;2.33;;;7.70;99.90;;;;;;5032653;28;20240;-79
2020/12/14 01:26:45;;;;;;;4.40;2.53;;;7.70;99.90;;;;;;5044522;28;20706;-80
2020/12/14 01:29:10;;;;;;;2.80;2.10;;;7.70;99.90;;;;;;5027820;28;20588;-79
2020/12/14 01:31:37;;;;;;;3.03;1.83;;;7.70;99.90;;;;;;5024762;28;20725;-79
2020/12/14 01:34:04;;;;;;;4.13;2.97;;;7.70;99.90;;;;;;5014834;28;20266;-79
2020/12/14 01:36:29;;;;;;;5.83;2.43;;;7.70;99.90;;;;;;5028480;28;20418;-79
2020/12/14 01:38:55;;;;;;;2.73;2.53;;;7.70;99.90;;;;;;5026423;28;20421;-79
2020/12/14 01:41:22;;;;;;;11.30;2.70;;;7.80;99.90;;;;;;5004958;28;20217;-79
2020/12/14 01:43:48;;;;;;;5.67;2.70;;;7.80;99.90;;;;;;5006522;28;20205;-79
2020/12/14 01:46:29;;;;;;;2.23;2.07;;;7.70;99.90;;;;;;5050839;28;21328;-79
2020/12/14 01:49:00;;;;;;;1.93;1.77;;;7.60;99.90;;;;;;5074273;28;20424;-79
2020/12/14 01:51:30;;;;;;;2.47;2.03;;;7.60;99.90;;;;;;5059565;28;20537;-79
2020/12/14 01:54:07;;;;;;;4.63;2.10;;;7.60;99.90;;;;;;5078142;28;20409;-79
2020/12/14 01:56:33;;;;;;;2.17;2.03;;;7.70;99.90;;;;;;5057542;28;20400;-79
2020/12/14 01:59:00;;;;;;;3.80;2.23;;;7.70;99.90;;;;;;5068402;28;21124;-79
2020/12/14 02:01:26;;;;;;;5.50;2.20;;;7.70;99.90;;;;;;5043076;28;20238;-79
2020/12/14 02:03:52;;;;;;;3.10;2.33;;;7.80;99.90;;;;;;5056455;28;20447;-79
2020/12/14 02:06:18;;;;;;;4.90;2.53;;;7.70;99.90;;;;;;5067477;28;20483;-79
2020/12/14 02:08:45;;;;;;;2.47;1.90;;;7.80;99.90;;;;;;5048611;28;20637;-80
2020/12/14 02:11:15;;;;;;;2.80;1.97;;;7.80;99.90;;;;;;5062891;28;20342;-80
2020/12/14 02:13:41;;;;;;;3.80;2.33;;;7.60;99.90;;;;;;5064900;22;20371;-77
2020/12/14 02:16:07;;;;;;;2.20;2.00;;;7.60;99.90;;;;;;5080904;28;20417;-79
2020/12/14 02:18:32;;;;;;;7.50;2.47;;;7.60;99.90;;;;;;5080948;28;20449;-79
2020/12/14 02:20:59;;;;;;;3.30;1.80;;;7.50;99.90;;;;;;5068132;28;20220;-79
2020/12/14 02:23:25;;;;;;;2.30;2.10;;;7.50;99.90;;;;;;5081306;28;20204;-79
2020/12/14 02:25:50;;;;;;;3.97;2.93;;;7.50;99.90;;;;;;5049325;28;20453;-79
2020/12/14 02:28:16;;;;;;;3.67;2.17;;;7.50;99.90;;;;;;5048999;28;20582;-79
2020/12/14 02:30:42;;;;;;;3.47;3.00;;;7.50;99.90;;;;;;5084367;28;20242;-79
2020/12/14 02:33:07;;;;;;;1.97;1.77;;;7.50;99.90;;;;;;5079299;28;20215;-79
2020/12/14 02:35:33;;;;;;;3.63;2.40;;;7.60;99.90;;;;;;5081498;28;20274;-79
2020/12/14 02:38:00;;;;;;;4.33;2.73;;;7.50;99.90;;;;;;5064615;28;20215;-79
2020/12/14 02:40:27;;;;;;;4.10;2.40;;;7.40;99.90;;;;;;5081428;28;20242;-79
2020/12/14 02:42:52;;;;;;;6.30;2.50;;;7.40;99.90;;;;;;5064006;28;20482;-79
2020/12/14 02:45:18;;;;;;;2.53;1.53;;;7.30;99.90;;;;;;5051796;28;20403;-79
2020/12/14 02:47:44;;;;;;;5.77;2.40;;;7.20;99.90;;;;;;5085757;28;20217;-79
2020/12/14 02:50:09;;;;;;;3.63;1.93;;;7.30;99.90;;;;;;5065466;28;20712;-79
2020/12/14 02:52:36;;;;;;;2.13;1.90;;;7.30;99.90;;;;;;5077421;28;20218;-79
2020/12/14 02:55:02;;;;;;;3.70;2.03;;;7.40;99.90;;;;;;5063946;28;20216;-79
2020/12/14 02:57:28;;;;;;;4.37;2.50;;;7.40;99.90;;;;;;5065790;28;20757;-79
2020/12/14 02:59:54;;;;;;;5.20;2.10;;;7.40;99.90;;;;;;5069150;28;20421;-79
2020/12/14 03:02:20;;;;;;;4.57;2.23;;;7.50;99.90;;;;;;5081035;28;20491;-79
2020/12/14 03:04:46;;;;;;;4.40;2.37;;;7.60;99.90;;;;;;5049188;28;20239;-79
2020/12/14 03:07:12;;;;;;;8.30;2.27;;;7.50;99.90;;;;;;5064042;28;20436;-79
2020/12/14 03:09:38;;;;;;;2.17;1.87;;;7.60;99.90;;;;;;5079376;28;20218;-79
2020/12/14 03:12:04;;;;;;;2.17;1.97;;;7.70;99.90;;;;;;5080197;28;21204;-79
2020/12/14 03:14:29;;;;;;;3.47;2.13;;;7.70;99.90;;;;;;5072915;28;20775;-79
2020/12/14 03:16:56;;;;;;;3.07;1.60;;;7.70;99.90;;;;;;5061002;28;20728;-79
2020/12/14 03:19:22;;;;;;;3.90;1.60;;;7.70;99.90;;;;;;5085746;28;20364;-77
2020/12/14 03:21:48;;;;;;;2.77;2.37;;;7.80;99.90;;;;;;5074376;28;20413;-77
2020/12/14 03:24:15;;;;;;;6.70;1.90;;;7.80;99.90;;;;;;5055934;28;20479;-77
2020/12/14 03:26:41;;;;;;;2.20;1.87;;;7.80;99.90;;;;;;5084820;28;20192;-80
2020/12/14 03:29:07;;;;;;;6.80;2.27;;;7.80;99.90;;;;;;5091892;28;20440;-79
2020/12/14 03:31:33;;;;;;;4.20;2.10;;;7.90;99.90;;;;;;5070160;28;20203;-81
2020/12/14 03:33:59;;;;;;;4.33;1.97;;;7.80;99.90;;;;;;5075070;28;20450;-80
2020/12/14 03:36:25;;;;;;;2.87;2.20;;;7.90;99.90;;;;;;5071223;28;20211;-81
2020/12/14 03:38:53;;;;;;;3.77;2.10;;;7.90;99.90;;;;;;5090731;28;20440;-81
2020/12/14 03:41:20;;;;;;;3.23;1.90;;;7.90;99.90;;;;;;5096855;28;20983;-81
2020/12/14 03:43:46;;;;;;;1.90;1.73;;;7.90;99.90;;;;;;5091922;28;20427;-81
2020/12/14 03:46:24;;;;;;;2.40;2.03;;;7.90;99.90;;;;;;5095796;28;20916;-81
2020/12/14 03:48:54;;;;;;;4.80;2.30;;;8.00;99.90;;;;;;5095022;28;20437;-81
2020/12/14 03:51:23;;;;;;;1.97;1.83;;;8.00;99.90;;;;;;5083522;28;20360;-81
2020/12/14 03:53:50;;;;;;;5.70;2.50;;;8.10;99.90;;;;;;5096565;28;20437;-81
2020/12/14 03:56:23;;;;;;;5.00;2.13;;;8.20;99.90;;;;;;5066424;28;20364;-81
2020/12/14 03:58:49;;;;;;;2.40;1.80;;;8.20;99.90;;;;;;5084701;28;21245;-78
2020/12/14 04:01:23;;;;;;;9.23;1.90;;;8.10;99.90;;;;;;5084196;28;20570;-79
2020/12/14 04:03:50;;;;;;;2.90;2.03;;;8.10;99.90;;;;;;5064404;28;20416;-79
2020/12/14 04:06:17;;;;;;;2.10;1.87;;;8.20;99.90;;;;;;5080399;28;20510;-79
2020/12/14 04:08:44;;;;;;;1.80;1.70;;;8.20;99.90;;;;;;5079825;28;20433;-79
2020/12/14 04:11:10;;;;;;;3.60;2.07;;;8.10;99.90;;;;;;5053253;28;20765;-78
2020/12/14 04:13:36;;;;;;;3.50;1.80;;;8.10;99.90;;;;;;5075673;28;20421;-79
2020/12/14 04:16:02;;;;;;;6.57;2.83;;;8.20;99.90;;;;;;5066019;28;20393;-79
2020/12/14 04:18:27;;;;;;;2.93;1.90;;;8.20;99.90;;;;;;5082873;28;20457;-79
2020/12/14 04:20:53;;;;;;;2.07;1.80;;;8.30;99.90;;;;;;5064535;28;20220;-79
2020/12/14 04:23:19;;;;;;;6.73;1.80;;;8.30;99.90;;;;;;5066760;28;20209;-79
2020/12/14 04:25:45;;;;;;;3.40;2.27;;;8.30;99.90;;;;;;5065056;28;20534;-78
2020/12/14 04:28:10;;;;;;;2.67;1.80;;;8.30;99.90;;;;;;5068427;28;20456;-79
2020/12/14 04:30:38;;;;;;;3.13;2.23;;;8.30;99.90;;;;;;5082110;28;20282;-79
2020/12/14 04:33:05;;;;;;;2.20;1.67;;;8.40;99.90;;;;;;5051983;28;20247;-78
2020/12/14 04:35:31;;;;;;;3.70;2.10;;;8.40;99.90;;;;;;5083735;28;20484;-78
2020/12/14 04:37:57;;;;;;;3.53;1.53;;;8.30;99.90;;;;;;5075721;28;20806;-79
2020/12/14 04:40:27;;;;;;;4.47;1.90;;;8.40;99.90;;;;;;5078291;28;20209;-79
2020/12/14 04:42:54;;;;;;;2.80;1.70;;;8.40;99.90;;;;;;5063578;28;20698;-78
2020/12/14 04:45:23;;;;;;;3.50;1.93;;;8.50;99.90;;;;;;5063959;28;20421;-78
2020/12/14 04:47:53;;;;;;;1.33;1.20;;;8.40;99.90;;;;;;5066316;28;20495;-78
2020/12/14 04:50:22;;;;;;;8.63;2.17;;;8.40;99.90;;;;;;5063900;28;21927;-78
2020/12/14 04:52:49;;;;;;;8.27;2.63;;;8.40;99.90;;;;;;5066377;28;22776;-78
2020/12/14 04:55:19;;;;;;;5.93;1.63;;;8.40;99.90;;;;;;5048526;28;20426;-78
2020/12/14 04:57:46;;;;;;;7.57;2.30;;;8.50;99.90;;;;;;5097085;27;20789;-78
2020/12/14 05:00:12;;;;;;;3.90;2.40;;;8.50;99.90;;;;;;5096503;27;20521;-78
2020/12/14 05:02:38;;;;;;;3.53;1.93;;;8.40;99.90;;;;;;5059805;28;20966;-78
2020/12/14 05:05:04;;;;;;;4.70;2.00;;;8.40;99.90;;;;;;5064343;28;20568;-78
2020/12/14 05:07:43;;;;;;;6.13;1.70;;;8.40;99.90;;;;;;5060131;28;20208;-78
2020/12/14 05:10:10;;;;;;;2.07;1.97;;;8.40;99.90;;;;;;5064235;28;20463;-78
2020/12/14 05:12:44;;;;;;;5.40;1.97;;;8.40;99.90;;;;;;5082826;28;20890;-78
2020/12/14 05:15:27;;;;;;;10.03;1.50;;;8.40;99.90;;;;;;5078340;28;20430;-78
2020/12/14 05:18:15;;;;;;;1.60;1.50;;;8.40;99.90;;;;;;5072677;28;20846;-78
2020/12/14 05:21:00;;;;;;;2.30;1.70;;;8.30;99.90;;;;;;5066415;28;20479;-78
2020/12/14 05:23:27;;;;;;;1.80;1.70;;;8.20;99.90;;;;;;5061229;28;20479;-78
2020/12/14 05:26:10;;;;;;;2.50;2.13;;;8.20;99.90;;;;;;5049498;28;20594;-78
2020/12/14 05:28:36;;;;;;;2.47;2.10;;;8.10;99.90;;;;;;5065014;28;20429;-78
2020/12/14 05:31:02;;;;;;;2.20;1.77;;;8.20;99.90;;;;;;5081821;28;20590;-78
2020/12/14 05:33:30;;;;;;;2.33;1.67;;;8.20;99.90;;;;;;5077554;28;20471;-79
2020/12/14 05:35:56;;;;;;;2.67;1.53;;;8.20;99.90;;;;;;5080470;28;20393;-78
2020/12/14 05:38:30;;;;;;;1.70;1.60;;;8.10;99.90;;;;;;5083636;28;20428;-78
2020/12/14 05:41:04;;;;;;;2.53;2.10;;;8.20;99.90;;;;;;5078204;28;20425;-78
2020/12/14 05:43:32;;;;;;;2.93;1.57;;;8.30;99.90;;;;;;5083898;28;20496;-78
2020/12/14 05:46:15;;;;;;;2.57;2.37;;;8.20;99.90;;;;;;5063859;28;20433;-78
2020/12/14 05:48:41;;;;;;;2.47;2.00;;;8.10;99.90;;;;;;5083922;28;20416;-78
2020/12/14 05:51:09;;;;;;;2.00;1.90;;;8.20;99.90;;;;;;5080459;28;20452;-78
2020/12/14 05:53:49;;;;;;;2.10;1.90;;;8.20;99.90;;;;;;5083086;28;21253;-78
2020/12/14 05:56:17;;;;;;;2.33;1.80;;;8.20;99.90;;;;;;5083455;28;20409;-78
2020/12/14 05:58:48;;;;;;;8.77;2.00;;;8.30;99.90;;;;;;5057596;28;20424;-78
2020/12/14 06:01:14;;;;;;;1.93;1.73;;;8.20;99.90;;;;;;5084817;28;20817;-78
2020/12/14 06:03:40;;;;;;;4.40;2.10;;;8.30;99.90;;;;;;5061811;28;20534;-78
2020/12/14 06:06:13;;;;;;;5.33;3.53;;;8.30;99.90;;;;;;5067979;28;20432;-78
2020/12/14 06:08:44;;;;;;;2.73;2.10;;;8.20;99.90;;;;;;5083843;28;20425;-78
2020/12/14 06:11:15;;;;;;;6.10;2.20;;;8.30;99.90;;;;;;5091426;28;20425;-78
2020/12/14 06:13:51;;;;;;;2.13;1.60;;;8.30;99.90;;;;;;5081336;28;20428;-78
2020/12/14 06:16:25;;;;;;;3.10;2.03;;;8.30;99.90;;;;;;5083563;28;20426;-79
2020/12/14 06:18:52;;;;;;;1.97;1.67;;;8.40;99.90;;;;;;5048989;28;20422;-78
2020/12/14 06:21:35;;;;;;;4.67;2.13;;;8.40;99.90;;;;;;5085594;28;20918;-78
2020/12/14 06:24:05;;;;;;;2.73;1.50;;;8.40;99.90;;;;;;5082526;28;20425;-78
2020/12/14 06:26:35;;;;;;;3.50;2.43;;;8.40;99.90;;;;;;5081580;28;20411;-78
2020/12/14 06:29:01;;;;;;;2.67;1.63;;;8.50;99.90;;;;;;5081959;28;20539;-78
2020/12/14 06:31:36;;;;;;;4.70;2.07;;;8.50;99.90;;;;;;5082431;28;20528;-79
2020/12/14 06:34:03;;;;;;;4.93;3.00;;;8.50;99.90;;;;;;5084227;28;20838;-78
2020/12/14 06:36:40;;;;;;;2.80;2.20;;;8.40;99.90;;;;;;5060942;28;20424;-78
2020/12/14 06:39:31;;;;;;;5.80;2.37;;;8.40;99.90;;;;;;5084728;28;20417;-78
2020/12/14 06:42:21;;;;;;;2.30;2.10;;;8.30;99.90;;;;;;5088397;28;20394;-78
2020/12/14 06:45:05;;;;;;;4.00;2.13;;;8.40;99.90;;;;;;5073788;28;20441;-78
2020/12/14 06:47:51;;;;;;;2.47;1.83;;;8.30;99.90;;;;;;5069800;28;20464;-78
2020/12/14 06:50:29;;;;;;;3.93;2.17;;;8.60;99.90;;;;;;5088677;28;20472;-78
2020/12/14 06:52:56;;;;;;;2.93;1.77;;;8.60;99.90;;;;;;5077176;28;21018;-78
2020/12/14 06:55:44;;;;;;;6.00;2.60;;;8.70;99.90;;;;;;5083081;28;20536;-78
2020/12/14 06:58:30;;;;;;;8.53;3.20;;;8.70;99.90;;;;;;5080462;28;20398;-79
2020/12/14 07:00:56;;;;;;;1.73;1.60;;;8.70;99.90;;;;;;5086621;28;20437;-79
2020/12/14 07:03:36;;;;;;;1.87;1.40;;;8.70;99.90;;;;;;5050917;28;20560;-79
2020/12/14 07:06:05;;;;;;;5.70;1.83;;;8.70;99.90;;;;;;5077066;28;20416;-79
2020/12/14 07:08:38;;;;;;;2.37;1.90;;;8.60;99.90;;;;;;5084747;28;20545;-79
2020/12/14 07:11:18;;;;;;;4.00;2.40;;;8.70;99.90;;;;;;5036167;28;20432;-78
2020/12/14 07:13:46;;;;;;;2.43;1.80;;;8.50;99.90;;;;;;5086377;28;20400;-78
2020/12/14 07:16:13;;;;;;;3.00;1.73;;;8.50;99.90;;;;;;5065063;28;20416;-79
2020/12/14 07:18:40;;;;;;;3.43;1.83;;;8.50;99.90;;;;;;5090903;28;20427;-78
2020/12/14 07:21:11;;;;;;;1.63;1.53;;;8.50;99.90;;;;;;5082273;28;20419;-78
2020/12/14 07:23:39;;;;;;;2.50;2.30;;;8.60;99.90;;;;;;5064642;28;20927;-78
2020/12/14 07:26:06;;;;;;;3.37;2.10;;;8.60;99.90;;;;;;5085228;28;20397;-79
2020/12/14 07:28:44;;;;;;;3.40;1.50;;;8.70;99.90;;;;;;5074649;28;20506;-78
2020/12/14 07:31:12;;;;;;;2.83;1.90;;;8.90;99.90;;;;;;5081494;28;20440;-78
2020/12/14 07:33:39;;;;;;;2.20;1.80;;;8.90;99.90;;;;;;5075564;27;20412;-79
2020/12/14 07:36:07;;;;;;;2.07;1.93;;;9.00;99.90;;;;;;5083514;28;20483;-78
2020/12/14 07:38:33;;;;;;;1.97;1.87;;;8.90;99.90;;;;;;5085389;28;20863;-78
2020/12/14 07:41:07;;;;;;;5.10;2.00;;;9.00;99.90;;;;;;5101053;27;20441;-80
2020/12/14 07:43:43;;;;;;;7.60;2.20;;;8.90;99.90;;;;;;5047772;28;20549;-80
2020/12/14 07:46:26;;;;;;;2.27;1.90;;;8.90;99.90;;;;;;5081362;28;20524;-78
2020/12/14 07:48:57;;;;;;;2.07;1.53;;;8.80;99.90;;;;;;5055821;28;20422;-78
2020/12/14 07:51:23;;;;;;;4.73;1.90;;;8.90;99.90;;;;;;5074736;28;20485;-78
2020/12/14 07:53:50;;;;;;;6.37;1.40;;;8.90;99.90;;;;;;5064266;28;20376;-78
2020/12/14 07:56:19;;;;;;;2.10;1.90;;;9.00;99.90;;;;;;5060332;28;20449;-78
2020/12/14 07:58:48;;;;;;;1.97;1.80;;;8.90;99.90;;;;;;5074981;28;20418;-77
2020/12/14 08:01:16;;;;;;;3.90;1.97;;;8.80;99.90;;;;;;5028704;28;20916;-78
2020/12/14 08:03:44;;;;;;;2.97;2.10;;;8.70;99.90;;;;;;5061834;28;20504;-78
2020/12/14 08:06:14;;;;;;;3.37;2.47;;;8.60;99.90;;;;;;5053315;28;20422;-76
2020/12/14 08:08:46;;;;;;;6.53;2.47;;;8.60;99.90;;;;;;5073874;28;20864;-77
2020/12/14 08:11:13;;;;;;;2.40;1.90;;;8.50;99.90;;;;;;5073784;28;20430;-77
2020/12/14 08:13:39;;;;;;;4.43;2.50;;;8.50;99.90;;;;;;5072175;28;20410;-77
2020/12/14 08:16:06;;;;;;;5.33;1.73;;;8.40;99.90;;;;;;5055001;28;20435;-77
2020/12/14 08:18:34;;;;;;;6.20;2.20;;;8.40;99.90;;;;;;5077092;28;20436;-77
2020/12/14 08:21:00;;;;;;;2.77;2.10;;;8.40;99.90;;;;;;5075077;28;20486;-77
2020/12/14 08:23:30;;;;;;;2.47;1.90;;;8.40;99.90;;;;;;5078711;28;20746;-79
2020/12/14 08:25:56;;;;;;;6.00;2.93;;;8.30;99.90;;;;;;5077808;28;20208;-79
2020/12/14 08:28:34;;;;;;;3.80;2.53;;;8.30;99.90;;;;;;5082131;28;20447;-80
2020/12/14 08:31:04;;;;;;;2.80;2.43;;;8.30;99.90;;;;;;5067960;28;20420;-79
2020/12/14 08:33:30;;;;;;;3.00;2.07;;;8.20;99.90;;;;;;5067778;28;22968;-79
2020/12/14 08:35:57;;;;;;;4.27;2.40;;;8.20;99.90;;;;;;5102033;27;20453;-81
2020/12/14 08:38:29;;;;;;;4.20;3.43;;;8.20;99.90;;;;;;5036798;28;20449;-82
2020/12/14 08:41:04;;;;;;;6.60;2.90;;;8.10;99.90;;;;;;5069393;28;20444;-80
2020/12/14 08:43:33;;;;;;;4.27;3.13;;;8.10;99.90;;;;;;5084931;28;20397;-80
2020/12/14 08:46:11;;;;;;;6.93;2.70;;;8.20;99.90;;;;;;5062387;28;20581;-80
2020/12/14 08:48:56;;;;;;;3.07;2.77;;;8.10;99.90;;;;;;5070964;28;20370;-80
2020/12/14 08:51:24;;;;;;;7.70;2.90;;;8.10;99.90;;;;;;5069687;28;20361;-80
2020/12/14 08:53:51;;;;;;;5.23;2.87;;;8.10;99.90;;;;;;5096722;27;20390;-80
2020/12/14 08:56:20;;;;;;;2.60;2.40;;;8.10;99.90;;;;;;5084717;28;20501;-80
2020/12/14 08:58:58;;;;;;;3.40;2.53;;;8.10;99.90;;;;;;5078940;28;20405;-81
2020/12/14 09:01:26;;;;;;;3.70;3.13;;;8.20;99.90;;;;;;5087724;28;20441;-80
2020/12/14 09:04:00;;;;;;;8.20;3.53;;;8.30;99.90;;;;;;5066924;28;20402;-79
2020/12/14 09:06:31;;;;;;;5.80;2.70;;;8.40;99.90;;;;;;5082602;28;20417;-79
2020/12/14 09:08:59;;;;;;;7.77;3.50;;;8.40;99.90;;;;;;5067071;28;20378;-79
2020/12/14 09:11:28;;;;;;;3.40;3.10;;;8.50;99.90;;;;;;5065125;28;20434;-79
2020/12/14 09:13:55;;;;;;;3.63;3.13;;;8.50;99.90;;;;;;5085613;28;20393;-79
2020/12/14 09:16:21;;;;;;;2.70;2.40;;;8.50;99.90;;;;;;5060661;28;20843;-79
2020/12/14 09:18:47;;;;;;;7.63;2.77;;;8.50;99.90;;;;;;5047643;28;20442;-79
2020/12/14 09:21:13;;;;;;;5.63;3.77;;;8.60;99.90;;;;;;5071944;28;20220;-79
2020/12/14 09:23:38;;;;;;;5.63;2.57;;;8.70;99.90;;;;;;5087468;28;20293;-79
2020/12/14 09:26:05;;;;;;;3.97;2.80;;;8.60;99.90;;;;;;5068334;28;20809;-80
2020/12/14 09:28:34;;;;;;;6.60;2.17;;;8.70;99.90;;;;;;5068594;28;20299;-79
2020/12/14 09:31:01;;;;;;;3.37;2.13;;;8.70;99.90;;;;;;5050897;28;20504;-78
2020/12/14 09:33:27;;;;;;;3.10;2.70;;;8.80;99.90;;;;;;5068394;28;21091;-79
2020/12/14 09:35:52;;;;;;;3.13;2.70;;;8.90;99.90;;;;;;5047869;28;20459;-78
2020/12/14 09:38:20;;;;;;;2.83;2.53;;;9.00;99.90;;;;;;5063319;28;20907;-78
2020/12/14 09:40:52;;;;;;;3.33;2.30;;;8.90;99.90;;;;;;5047325;28;20200;-78
2020/12/14 09:43:19;;;;;;;3.33;2.70;;;9.00;99.90;;;;;;5062725;28;20409;-78
2020/12/14 09:45:49;;;;;;;2.83;2.50;;;9.00;99.90;;;;;;5077860;28;20449;-79
2020/12/14 09:48:17;;;;;;;2.80;2.50;;;9.10;99.90;;;;;;5059231;28;20461;-78
2020/12/14 09:50:43;;;;;;;4.70;2.57;;;9.10;99.90;;;;;;5062198;28;20992;-78
2020/12/14 09:53:37;;;;;;;2.10;1.87;;;9.10;99.90;;;;;;5079644;28;20402;-78
2020/12/14 09:56:03;;;;;;;2.87;2.07;;;9.10;99.90;;;;;;5022592;28;20559;-78
2020/12/14 09:58:30;;;;;;;3.67;2.53;;;9.20;99.90;;;;;;5024194;28;21656;-78
2020/12/14 10:00:56;;;;;;;5.90;2.77;;;9.20;99.90;;;;;;5014793;28;20422;-78
2020/12/14 10:03:22;;;;;;;2.77;2.40;;;9.20;99.90;;;;;;5057291;28;20502;-78
2020/12/14 10:05:47;;;;;;;2.43;2.23;;;9.10;99.90;;;;;;5043388;28;20217;-78
2020/12/14 10:08:14;;;;;;;4.07;2.80;;;9.10;99.90;;;;;;5042580;28;20222;-78
2020/12/14 10:10:40;;;;;;;2.87;2.57;;;9.10;99.90;;;;;;5027925;28;21092;-78
2020/12/14 10:13:06;;;;;;;3.23;2.47;;;9.00;99.90;;;;;;5040385;28;20462;-79
2020/12/14 10:15:32;;;;;;;2.97;2.67;;;9.00;99.90;;;;;;5041627;28;21043;-79
2020/12/14 10:17:59;;;;;;;3.07;2.17;;;9.00;99.90;;;;;;5027048;28;20422;-79
2020/12/14 10:20:25;;;;;;;7.73;3.10;;;9.00;99.90;;;;;;5060696;28;20624;-79
2020/12/14 10:22:52;;;;;;;3.43;2.20;;;8.90;99.90;;;;;;5029907;28;20487;-79
2020/12/14 10:25:18;;;;;;;3.40;3.03;;;8.90;99.90;;;;;;5030805;28;20846;-79
2020/12/14 10:27:45;;;;;;;7.90;2.93;;;8.90;99.90;;;;;;5029520;28;20485;-79
2020/12/14 10:30:10;;;;;;;3.20;2.50;;;9.00;99.90;;;;;;5028950;28;20468;-79
2020/12/14 10:32:36;;;;;;;3.27;2.53;;;9.10;99.90;;;;;;5039394;28;20803;-80
2020/12/14 10:35:02;;;;;;;10.37;5.13;;;9.20;99.90;;;;;;5047592;28;20221;-79
2020/12/14 10:37:28;;;;;;;9.73;3.90;;;9.30;99.90;;;;;;5056487;28;20211;-79
2020/12/14 10:39:55;;;;;;;3.63;3.20;;;9.30;99.90;;;;;;5081789;28;20425;-79
2020/12/14 10:42:20;;;;;;;5.17;3.10;;;9.30;99.90;;;;;;5044755;28;20215;-79
2020/12/14 10:44:46;;;;;;;4.50;3.17;;;9.20;99.90;;;;;;5050372;28;20425;-80
2020/12/14 10:47:14;;;;;;;4.00;3.60;;;9.30;99.90;;;;;;5068434;28;20911;-80
2020/12/14 10:49:39;;;;;;;4.77;3.50;;;9.30;99.90;;;;;;5084435;28;20216;-80
2020/12/14 10:52:05;;;;;;;6.00;3.40;;;9.30;99.90;;;;;;5081844;28;20442;-80
2020/12/14 10:54:31;;;;;;;3.47;2.83;;;9.10;99.90;;;;;;5061700;28;20223;-80
2020/12/14 10:56:57;;;;;;;3.87;3.27;;;9.10;99.90;;;;;;5064126;28;20522;-81
2020/12/14 10:59:25;;;;;;;4.10;3.20;;;9.00;99.90;;;;;;5052113;28;20217;-80
2020/12/14 11:01:51;;;;;;;4.97;3.37;;;9.10;99.90;;;;;;5069014;28;20408;-80
2020/12/14 11:04:17;;;;;;;5.60;3.30;;;9.10;99.90;;;;;;5049145;28;20401;-80
2020/12/14 11:06:43;;;;;;;8.93;3.10;;;9.20;99.90;;;;;;5057549;28;20940;-79
2020/12/14 11:09:13;;;;;;;3.43;2.93;;;9.00;99.90;;;;;;5066210;28;20741;-79
2020/12/14 11:11:40;;;;;;;6.50;3.13;;;9.20;99.90;;;;;;5062721;28;20212;-80
2020/12/14 11:14:05;;;;;;;4.33;3.07;;;9.10;99.90;;;;;;5084672;28;20430;-79
2020/12/14 11:16:32;;;;;;;4.33;3.50;;;9.20;99.90;;;;;;5047015;28;21137;-79
2020/12/14 11:19:00;;;;;;;10.23;4.10;;;9.20;99.90;;;;;;5079825;28;20209;-81
2020/12/14 11:21:27;;;;;;;3.53;3.10;;;9.30;99.90;;;;;;5061385;28;20414;-80
2020/12/14 11:23:52;;;;;;;14.77;4.30;;;9.20;99.90;;;;;;5052799;28;20422;-80
2020/12/14 11:26:19;;;;;;;3.97;3.50;;;9.30;99.90;;;;;;5048703;28;20425;-81
2020/12/14 11:28:44;;;;;;;3.43;3.17;;;9.40;99.90;;;;;;5045021;28;20686;-81
2020/12/14 11:31:36;;;;;;;7.10;3.33;;;9.40;99.90;;;;;;5069430;28;20410;-80
2020/12/14 11:34:01;;;;;;;3.90;2.73;;;9.40;99.90;;;;;;5057032;28;20217;-80
2020/12/14 11:36:29;;;;;;;6.53;3.10;;;9.30;99.90;;;;;;5010828;28;20505;-80
2020/12/14 11:38:56;;;;;;;8.87;4.27;;;9.40;99.90;;;;;;5043865;28;20214;-79
2020/12/14 11:41:22;;;;;;;4.73;3.43;;;9.50;99.90;;;;;;5054307;28;21324;-79
2020/12/14 11:43:49;;;;;;;6.80;4.73;;;9.60;99.90;;;;;;5007631;28;20428;-79
2020/12/14 11:46:15;;;;;;;6.20;4.03;;;9.80;99.90;;;;;;5038012;28;20209;-81
2020/12/14 11:48:40;;;;;;;4.60;4.20;;;9.90;99.90;;;;;;5005436;28;20427;-79
2020/12/14 11:51:06;;;;;;;4.40;3.17;;;10.00;99.90;;;;;;5022552;28;20401;-79
2020/12/14 11:53:32;;;;;;;5.60;4.00;;;10.00;99.90;;;;;;5024904;28;20203;-79
2020/12/14 11:55:58;;;;;;;7.13;3.50;;;10.00;99.90;;;;;;5020105;28;20222;-79
2020/12/14 11:58:24;;;;;;;4.13;3.53;;;10.30;99.90;;;;;;5023611;28;20266;-79
2020/12/14 12:00:50;;;;;;;8.03;4.27;;;10.20;99.90;;;;;;5037793;28;20486;-79
2020/12/14 12:03:16;;;;;;;7.40;2.83;;;10.30;99.90;;;;;;5038784;28;20202;-78
2020/12/14 12:05:41;;;;;;;6.90;3.57;;;10.20;99.90;;;;;;5022387;28;22319;-79
2020/12/14 12:08:07;;;;;;;9.50;3.70;;;10.20;99.90;;;;;;5054020;28;20593;-79
2020/12/14 12:10:34;;;;;;;7.10;3.40;;;10.10;99.90;;;;;;5032544;28;20227;-79
2020/12/14 12:13:00;;;;;;;8.53;4.40;;;10.10;99.90;;;;;;5062602;28;20203;-78
2020/12/14 12:15:26;;;;;;;7.10;3.60;;;10.00;99.90;;;;;;5082798;28;20950;-78
2020/12/14 12:17:53;;;;;;;4.53;3.20;;;10.00;99.90;;;;;;5047519;28;20495;-79
2020/12/14 12:20:19;;;;;;;4.80;3.90;;;10.00;99.90;;;;;;5084109;28;20204;-78
2020/12/14 12:22:44;;;;;;;4.37;2.83;;;10.10;99.90;;;;;;5082091;28;20801;-78
2020/12/14 12:25:10;;;;;;;5.80;3.50;;;10.20;99.90;;;;;;5061607;28;21063;-78
2020/12/14 12:27:36;;;;;;;4.20;2.30;;;10.30;99.90;;;;;;5079302;28;21176;-78
2020/12/14 12:30:05;;;;;;;4.17;3.53;;;10.40;99.90;;;;;;5080662;28;20617;-78
2020/12/14 12:32:31;;;;;;;6.33;3.33;;;10.40;99.90;;;;;;5048684;28;20205;-78
2020/12/14 12:34:57;;;;;;;4.23;3.17;;;10.50;99.90;;;;;;5046324;28;20851;-78
2020/12/14 12:37:23;;;;;;;4.90;2.70;;;10.70;99.90;;;;;;5079355;28;20421;-78
2020/12/14 12:39:49;;;;;;;6.27;2.60;;;12.00;99.90;;;;;;5063228;28;20423;-77
2020/12/14 12:42:17;;;;;;;4.37;2.90;;;13.10;99.90;;;;;;5050900;28;20208;-78
2020/12/14 12:44:43;;;;;;;3.20;2.03;;;13.50;99.90;;;;;;5090870;28;21241;-78
2020/12/14 12:47:09;;;;;;;2.97;1.90;;;14.80;99.90;;;;;;5076888;28;20420;-77
2020/12/14 12:49:35;;;;;;;5.10;3.00;;;14.20;99.90;;;;;;5057758;28;20812;-77
2020/12/14 12:52:01;;;;;;;3.43;2.97;;;13.40;99.90;;;;;;5063073;28;20256;-78
2020/12/14 12:54:30;;;;;;;2.90;1.90;;;13.90;99.90;;;;;;5068040;28;20356;-78
2020/12/14 12:57:00;;;;;;;6.57;2.57;;;14.40;99.90;;;;;;5057756;28;21242;-77
2020/12/14 12:59:26;;;;;;;2.57;2.37;;;14.40;99.90;;;;;;5062908;28;20428;-77
2020/12/14 13:01:53;;;;;;;6.93;3.40;;;13.60;99.90;;;;;;5082924;28;20559;-77